Time;durP1;ratioP1;P1;durP2;ratioP2;P2;SDS_P1;SDS_P2;PMS_P1;PMS_P2;Temp;Humidity;BMP_temperature;BMP_pressure;BME280_temperature;BME280_humidity;BME280_pressure;Samples;Min_cycle;Max_cycle;Signal;HPM_P1;HPM_P2
2020/12/20 00:00:17;;;;;;;9.60;8.70;;;;;;;9.68;53.10;101501.97;5031491;27;100211;-74
2020/12/20 00:02:50;;;;;;;10.25;9.18;;;;;;;9.62;53.20;101506.78;5047195;27;97819;-74
2020/12/20 00:05:19;;;;;;;12.27;9.38;;;;;;;9.60;53.56;101511.03;5043709;27;96774;-74
2020/12/20 00:07:47;;;;;;;10.77;8.57;;;;;;;9.57;53.20;101516.06;5048563;27;98210;-74
2020/12/20 00:10:16;;;;;;;9.90;8.40;;;;;;;9.54;53.46;101515.88;5032986;27;98008;-73
2020/12/20 00:12:44;;;;;;;10.55;8.82;;;;;;;9.50;53.19;101516.47;5050362;27;97938;-73
2020/12/20 00:15:12;;;;;;;11.27;9.40;;;;;;;9.48;53.35;101507.56;5029475;27;96987;-73
2020/12/20 00:17:39;;;;;;;10.23;9.10;;;;;;;9.48;53.38;101509.28;5044619;27;96942;-73
2020/12/20 00:20:08;;;;;;;10.73;9.20;;;;;;;9.45;53.70;101512.59;5045336;27;98091;-73
2020/12/20 00:22:36;;;;;;;12.85;11.48;;;;;;;9.74;52.79;101518.16;5039966;27;98910;-75
2020/12/20 00:25:22;;;;;;;10.20;9.10;;;;;;;9.56;53.54;101515.97;5039464;27;96729;-74
2020/12/20 00:27:50;;;;;;;10.27;8.40;;;;;;;9.52;52.96;101512.22;5029014;27;97226;-74
2020/12/20 00:30:18;;;;;;;11.40;9.35;;;;;;;9.49;53.54;101519.88;5028362;27;96969;-74
2020/12/20 00:32:46;;;;;;;9.88;8.88;;;;;;;9.46;53.48;101526.63;5043991;27;101600;-75
2020/12/20 00:35:13;;;;;;;10.80;9.32;;;;;;;9.43;53.32;101524.72;5034036;27;96847;-74
2020/12/20 00:37:41;;;;;;;11.77;10.37;;;;;;;9.70;52.41;101521.34;5035441;27;97095;-73
2020/12/20 00:40:08;;;;;;;12.05;9.85;;;;;;;9.54;52.60;101515.88;5058661;27;97877;-74
2020/12/20 00:42:36;;;;;;;9.85;8.52;;;;;;;9.46;53.08;101514.41;5054079;27;99387;-75
2020/12/20 00:45:04;;;;;;;10.50;9.50;;;;;;;9.42;53.42;101525.50;5050340;27;97209;-74
2020/12/20 00:47:32;;;;;;;10.43;8.43;;;;;;;9.40;53.21;101523.59;5041864;27;98207;-72
2020/12/20 00:49:59;;;;;;;9.80;8.52;;;;;;;9.40;53.65;101534.97;5047314;27;97888;-73
2020/12/20 00:52:27;;;;;;;9.32;8.32;;;;;;;9.39;53.33;101538.41;5036209;27;100579;-73
2020/12/20 00:54:59;;;;;;;10.23;9.15;;;;;;;9.37;53.08;101532.13;5028141;27;96889;-73
2020/12/20 00:57:28;;;;;;;10.88;8.73;;;;;;;9.35;53.73;101524.97;5026678;27;96875;-72
2020/12/20 00:59:56;;;;;;;10.20;9.20;;;;;;;9.33;53.43;101530.09;5047868;27;99142;-73
2020/12/20 01:02:23;;;;;;;10.10;8.95;;;;;;;9.30;53.41;101536.84;5048898;27;98502;-74
2020/12/20 01:04:51;;;;;;;9.52;8.52;;;;;;;9.31;53.03;101539.56;5029091;28;96916;-73
2020/12/20 01:07:19;;;;;;;10.50;9.40;;;;;;;9.29;53.17;101541.16;5025395;28;97292;-74
2020/12/20 01:09:51;;;;;;;10.32;9.25;;;;;;;9.28;53.63;101534.13;5041587;27;100516;-74
2020/12/20 01:12:22;;;;;;;8.98;8.07;;;;;;;9.28;53.35;101523.63;5025795;27;97925;-74
2020/12/20 01:15:36;;;;;;;10.77;8.82;;;;;;;9.25;53.15;101530.38;5029257;27;97108;-74
2020/12/20 01:18:03;;;;;;;9.43;7.80;;;;;;;9.26;53.07;101525.22;5032242;27;97301;-74
2020/12/20 01:20:31;;;;;;;9.68;8.52;;;;;;;9.24;53.62;101532.06;5034747;27;97898;-74
2020/12/20 01:22:58;;;;;;;8.82;7.93;;;;;;;9.23;53.54;101531.97;5034249;28;97532;-74
2020/12/20 01:25:27;;;;;;;10.25;8.57;;;;;;;9.22;53.52;101538.94;5013000;27;96765;-73
2020/12/20 01:28:06;;;;;;;9.43;8.52;;;;;;;9.20;53.21;101536.19;5014720;28;97206;-74
2020/12/20 01:30:39;;;;;;;9.50;8.48;;;;;;;9.20;53.70;101535.28;5025169;27;101458;-72
2020/12/20 01:33:06;;;;;;;9.10;8.20;;;;;;;9.19;53.21;101538.72;5040299;27;97702;-72
2020/12/20 01:35:42;;;;;;;10.20;8.63;;;;;;;9.21;53.30;101550.22;5006992;27;96927;-73
2020/12/20 01:38:09;;;;;;;11.00;9.20;;;;;;;9.21;53.84;101539.75;5024462;27;97461;-73
2020/12/20 01:40:38;;;;;;;9.82;8.80;;;;;;;9.21;53.54;101542.38;5029006;27;97399;-73
2020/12/20 01:43:06;;;;;;;10.77;8.80;;;;;;;9.20;53.45;101540.53;5030679;27;100066;-74
2020/12/20 01:45:35;;;;;;;8.63;7.80;;;;;;;9.20;53.66;101532.66;5026888;27;97254;-73
2020/12/20 01:48:04;;;;;;;10.38;9.18;;;;;;;9.18;53.69;101547.38;5032342;27;96943;-73
2020/12/20 01:50:56;;;;;;;10.57;8.50;;;;;;;9.16;53.55;101556.81;5028669;27;97261;-75
2020/12/20 01:53:24;;;;;;;9.25;8.30;;;;;;;9.13;53.15;101561.88;5044788;27;97422;-74
2020/12/20 01:55:59;;;;;;;10.30;9.00;;;;;;;9.09;53.29;101565.97;5026411;27;97021;-75
2020/12/20 01:58:47;;;;;;;9.48;8.10;;;;;;;9.10;53.81;101553.78;5047882;27;97189;-74
2020/12/20 02:01:23;;;;;;;9.18;8.30;;;;;;;9.10;53.41;101554.69;5035452;27;98150;-73
2020/12/20 02:04:07;;;;;;;11.27;8.50;;;;;;;9.09;53.50;101546.72;5009090;27;98330;-73
2020/12/20 02:06:41;;;;;;;9.63;8.30;;;;;;;9.06;53.65;101551.75;5031317;27;96742;-74
2020/12/20 02:09:09;;;;;;;9.77;8.20;;;;;;;9.05;53.36;101556.06;5022618;27;98157;-72
2020/12/20 02:11:37;;;;;;;9.77;8.77;;;;;;;9.06;53.60;101546.50;5022152;27;97133;-73
2020/12/20 02:14:13;;;;;;;9.48;8.48;;;;;;;9.04;53.51;101548.09;5024704;27;98000;-73
2020/12/20 02:16:48;;;;;;;9.60;8.57;;;;;;;9.02;54.16;101550.63;5028311;27;97220;-72
2020/12/20 02:19:22;;;;;;;10.38;8.60;;;;;;;9.00;53.22;101543.44;5021407;27;97209;-71
2020/12/20 02:22:06;;;;;;;10.52;8.45;;;;;;;8.96;53.16;101552.78;5024363;27;96595;-74
2020/12/20 02:24:35;;;;;;;10.93;8.73;;;;;;;8.92;53.54;101544.63;5022992;27;98365;-74
2020/12/20 02:27:11;;;;;;;9.73;8.68;;;;;;;8.91;53.26;101545.41;5004451;27;96870;-73
2020/12/20 02:29:48;;;;;;;8.90;7.97;;;;;;;8.90;53.62;101540.97;5018044;28;96933;-75
2020/12/20 02:32:15;;;;;;;9.98;8.98;;;;;;;8.88;53.51;101534.72;5020329;28;97958;-75
2020/12/20 02:34:43;;;;;;;9.25;8.35;;;;;;;8.88;53.72;101534.72;5020212;28;99186;-75
2020/12/20 02:37:12;;;;;;;11.15;8.52;;;;;;;8.88;53.68;101535.63;5026174;27;96983;-73
2020/12/20 02:39:54;;;;;;;9.93;8.70;;;;;;;8.88;53.77;101539.97;5027061;27;96832;-74
2020/12/20 02:42:24;;;;;;;9.25;8.20;;;;;;;8.88;53.47;101539.97;5025176;27;97851;-76
2020/12/20 02:44:51;;;;;;;10.05;8.57;;;;;;;8.90;53.46;101540.97;5026062;27;97990;-75
2020/12/20 02:47:19;;;;;;;8.30;7.45;;;;;;;8.90;53.79;101536.66;5016845;27;97068;-74
2020/12/20 02:49:47;;;;;;;10.70;8.60;;;;;;;8.90;53.78;101533.13;5027883;27;96664;-73
2020/12/20 02:52:26;;;;;;;9.18;8.25;;;;;;;8.91;53.31;101534.94;5037458;27;99840;-74
2020/12/20 02:54:54;;;;;;;10.10;9.13;;;;;;;8.91;53.34;101527.06;5030158;27;97116;-74
2020/12/20 02:57:33;;;;;;;9.88;7.90;;;;;;;8.89;53.72;101532.19;5029715;27;97516;-73
2020/12/20 03:00:14;;;;;;;9.35;8.35;;;;;;;8.87;53.09;101530.25;5032427;27;97095;-74
2020/12/20 03:02:42;;;;;;;8.82;7.95;;;;;;;8.87;53.24;101536.41;5029529;27;99474;-74
2020/12/20 03:05:10;;;;;;;9.48;7.63;;;;;;;8.88;53.78;101535.63;5023164;28;97872;-75
2020/12/20 03:07:39;;;;;;;11.10;8.95;;;;;;;8.89;53.36;101536.53;5028129;27;96745;-75
2020/12/20 03:10:07;;;;;;;8.75;7.85;;;;;;;8.89;53.82;101534.81;5027579;28;96790;-72
2020/12/20 03:12:34;;;;;;;9.35;8.40;;;;;;;8.90;53.61;101538.38;5025639;27;97815;-73
2020/12/20 03:15:02;;;;;;;9.43;8.52;;;;;;;8.88;53.20;101540.88;5029925;27;98011;-73
2020/12/20 03:17:32;;;;;;;9.00;8.10;;;;;;;8.89;53.40;101544.38;5028369;27;96913;-73
2020/12/20 03:20:00;;;;;;;9.27;8.32;;;;;;;8.88;53.59;101542.59;5031922;28;96984;-74
2020/12/20 03:22:28;;;;;;;9.82;8.48;;;;;;;8.89;53.02;101529.59;5025551;27;98258;-74
2020/12/20 03:25:11;;;;;;;9.60;8.23;;;;;;;8.90;53.61;101538.38;5024056;28;98402;-74
2020/12/20 03:27:42;;;;;;;9.85;8.27;;;;;;;8.91;52.88;101534.94;5026723;27;97281;-75
2020/12/20 03:30:38;;;;;;;8.88;7.72;;;;;;;8.90;53.15;101540.97;5025965;27;97507;-74
2020/12/20 03:33:27;;;;;;;9.00;8.10;;;;;;;8.90;53.30;101540.97;5030271;27;98415;-75
2020/12/20 03:36:36;;;;;;;10.07;7.72;;;;;;;8.88;53.18;101534.72;5047597;27;96990;-73
2020/12/20 03:39:06;;;;;;;8.23;7.43;;;;;;;8.88;53.58;101530.41;5029827;27;96683;-73
2020/12/20 03:41:39;;;;;;;9.38;8.20;;;;;;;8.90;53.14;101534.03;5028812;27;97279;-73
2020/12/20 03:44:11;;;;;;;8.65;7.78;;;;;;;8.90;53.16;101533.13;5033717;27;98049;-74
2020/12/20 03:46:39;;;;;;;8.68;7.80;;;;;;;8.88;53.46;101527.78;5028013;27;97851;-74
2020/12/20 03:49:07;;;;;;;8.77;7.97;;;;;;;8.90;53.55;101520.03;5032073;27;96862;-74
2020/12/20 03:51:35;;;;;;;9.05;7.93;;;;;;;8.89;53.26;101531.28;5026765;27;97408;-74
2020/12/20 03:54:03;;;;;;;10.23;8.20;;;;;;;8.88;53.24;101530.41;5014062;28;99760;-72
2020/12/20 03:57:09;;;;;;;9.05;8.15;;;;;;;8.89;53.57;101536.53;5042027;27;97252;-74
2020/12/20 03:59:39;;;;;;;8.38;7.57;;;;;;;8.92;53.24;101528.91;5026511;27;97037;-72
2020/12/20 04:02:10;;;;;;;8.68;7.78;;;;;;;8.95;53.50;101531.72;5032574;28;97500;-73
2020/12/20 04:04:39;;;;;;;8.07;7.28;;;;;;;8.95;53.19;101530.03;5048343;27;98011;-73
2020/12/20 04:07:07;;;;;;;8.80;7.88;;;;;;;8.99;53.02;101528.53;5047293;27;98186;-74
2020/12/20 04:09:39;;;;;;;9.55;8.40;;;;;;;8.98;53.39;101521.47;5035427;27;97300;-73
2020/12/20 04:12:16;;;;;;;8.32;7.53;;;;;;;8.98;53.33;101518.84;5023367;27;97233;-74
2020/12/20 04:14:45;;;;;;;9.60;8.55;;;;;;;8.97;53.42;101519.66;5026464;28;99225;-74
2020/12/20 04:17:13;;;;;;;8.63;7.68;;;;;;;8.98;52.93;101516.22;5029126;27;99189;-74
2020/12/20 04:19:42;;;;;;;9.55;8.55;;;;;;;8.99;53.44;101510.19;5036998;27;95998;-73
2020/12/20 04:22:27;;;;;;;8.75;7.85;;;;;;;8.98;53.09;101506.66;5031195;27;97348;-73
2020/12/20 04:25:15;;;;;;;8.52;7.72;;;;;;;8.98;53.51;101496.19;5033202;27;97054;-74
2020/12/20 04:28:03;;;;;;;9.27;8.25;;;;;;;8.97;53.33;101494.38;5048892;27;100315;-73
2020/12/20 04:30:30;;;;;;;8.77;7.90;;;;;;;8.96;53.58;101504.72;5049661;27;96874;-73
2020/12/20 04:33:04;;;;;;;8.32;7.32;;;;;;;8.94;53.17;101501.09;5030668;28;97160;-74
2020/12/20 04:35:35;;;;;;;8.63;7.72;;;;;;;8.92;53.70;101507.94;5033082;27;98113;-74
2020/12/20 04:38:02;;;;;;;9.32;8.10;;;;;;;8.93;53.05;101501.88;5035338;27;97922;-73
2020/12/20 04:40:38;;;;;;;10.57;7.65;;;;;;;8.91;53.60;101501.78;5037008;27;96949;-73
2020/12/20 04:43:08;;;;;;;8.68;7.78;;;;;;;8.87;52.97;101506.69;5041713;27;96701;-73
2020/12/20 04:45:37;;;;;;;8.95;7.38;;;;;;;8.84;53.29;101503.84;5028902;27;98138;-74
2020/12/20 04:48:12;;;;;;;9.68;7.95;;;;;;;8.81;53.31;101503.66;5055043;27;97695;-74
2020/12/20 04:50:53;;;;;;;8.65;7.75;;;;;;;8.79;53.65;101510.50;5030810;28;97586;-73
2020/12/20 04:53:22;;;;;;;9.75;8.15;;;;;;;8.78;53.38;101512.19;5029295;27;96826;-73
2020/12/20 04:55:58;;;;;;;9.50;8.20;;;;;;;8.76;53.55;101523.34;5025484;28;100885;-73
2020/12/20 04:58:39;;;;;;;8.02;7.22;;;;;;;8.75;53.76;101527.69;5028710;27;100951;-74
2020/12/20 05:01:08;;;;;;;9.57;7.88;;;;;;;8.77;53.47;101533.03;5034494;27;99223;-72
2020/12/20 05:03:35;;;;;;;9.15;7.93;;;;;;;8.75;53.47;101537.25;5030473;27;97206;-72
2020/12/20 05:06:06;;;;;;;8.63;7.72;;;;;;;8.75;53.38;101534.63;5023080;27;97980;-74
2020/12/20 05:08:33;;;;;;;7.93;7.13;;;;;;;8.74;53.44;101541.56;5034314;27;99370;-74
2020/12/20 05:11:02;;;;;;;10.05;7.80;;;;;;;8.75;53.97;101537.25;5045645;27;96690;-72
2020/12/20 05:13:41;;;;;;;8.35;7.53;;;;;;;8.75;53.57;101542.50;5027737;27;97190;-72
2020/12/20 05:16:30;;;;;;;8.00;7.18;;;;;;;8.74;52.89;101535.44;5026377;27;97964;-74
2020/12/20 05:19:05;;;;;;;8.45;7.63;;;;;;;8.77;53.28;101540.91;5038098;27;97983;-73
2020/12/20 05:21:35;;;;;;;9.05;7.50;;;;;;;8.78;53.26;101527.91;5028906;27;96732;-72
2020/12/20 05:24:24;;;;;;;8.68;7.15;;;;;;;8.77;53.15;101531.34;5031423;27;96879;-72
2020/12/20 05:27:28;;;;;;;7.95;7.15;;;;;;;8.78;53.66;101527.91;5041775;27;99204;-73
2020/12/20 05:30:12;;;;;;;9.10;8.20;;;;;;;8.80;53.12;101522.75;5032627;27;97968;-71
2020/12/20 05:32:58;;;;;;;7.97;7.20;;;;;;;8.82;53.05;101539.50;5026883;27;96753;-73
2020/12/20 05:35:27;;;;;;;9.70;7.90;;;;;;;8.84;53.51;101533.59;5028513;27;96766;-72
2020/12/20 05:37:56;;;;;;;8.38;7.57;;;;;;;8.84;53.55;101530.97;5035256;28;99236;-71
2020/12/20 05:40:30;;;;;;;9.65;8.13;;;;;;;8.85;53.31;101530.16;5035372;27;97996;-73
2020/12/20 05:43:01;;;;;;;7.75;6.85;;;;;;;8.87;53.09;101517.16;5035936;27;96723;-72
2020/12/20 05:45:32;;;;;;;9.43;7.72;;;;;;;8.88;53.47;101513.75;5035758;27;96950;-72
2020/12/20 05:48:16;;;;;;;7.97;7.18;;;;;;;8.87;53.35;101517.16;5030863;27;96626;-73
2020/12/20 05:50:52;;;;;;;8.55;7.70;;;;;;;8.85;53.23;101518.78;5023132;28;97875;-73
2020/12/20 05:53:25;;;;;;;8.82;7.70;;;;;;;8.87;53.07;101511.91;5024962;27;97218;-72
2020/12/20 05:55:54;;;;;;;9.23;7.50;;;;;;;8.88;53.29;101513.75;5029480;27;97430;-72
2020/12/20 05:58:22;;;;;;;10.27;7.43;;;;;;;8.86;53.40;101515.34;5042611;27;99182;-73
2020/12/20 06:00:51;;;;;;;8.55;7.15;;;;;;;8.87;53.33;101517.16;5029966;27;98196;-71
2020/12/20 06:03:18;;;;;;;9.40;7.43;;;;;;;8.89;53.01;101505.09;5031541;27;97235;-70
2020/12/20 06:05:47;;;;;;;8.80;7.53;;;;;;;8.90;53.36;101509.53;5048086;27;97187;-73
2020/12/20 06:08:16;;;;;;;7.88;7.18;;;;;;;8.88;53.23;101505.91;5048230;27;98782;-72
2020/12/20 06:10:46;;;;;;;8.73;7.82;;;;;;;8.86;53.16;101505.81;5041932;27;98349;-73
2020/12/20 06:13:17;;;;;;;8.38;7.57;;;;;;;8.88;52.92;101508.53;5024205;28;97426;-73
2020/12/20 06:15:47;;;;;;;9.10;8.07;;;;;;;8.87;53.44;101519.78;5007943;27;96739;-73
2020/12/20 06:18:18;;;;;;;8.77;7.68;;;;;;;8.86;52.96;101511.03;5053609;27;97862;-71
2020/12/20 06:20:50;;;;;;;8.48;7.68;;;;;;;8.87;53.34;101518.09;5031444;28;97883;-73
2020/12/20 06:23:20;;;;;;;8.82;7.18;;;;;;;8.89;52.76;101512.94;5050127;27;96767;-73
2020/12/20 06:25:48;;;;;;;9.70;7.55;;;;;;;8.89;53.23;101520.81;5030590;28;95951;-73
2020/12/20 06:28:19;;;;;;;8.57;7.43;;;;;;;8.88;53.06;101525.16;5048285;27;97634;-74
2020/12/20 06:30:47;;;;;;;8.10;7.30;;;;;;;8.89;53.08;101512.94;5030013;27;98222;-73
2020/12/20 06:33:24;;;;;;;9.13;8.23;;;;;;;8.89;53.02;101515.56;5053094;27;96623;-73
2020/12/20 06:35:56;;;;;;;8.65;7.78;;;;;;;8.88;53.24;101517.31;5032492;28;97150;-72
2020/12/20 06:38:24;;;;;;;8.07;7.05;;;;;;;8.87;53.37;101514.53;5050040;27;98870;-73
2020/12/20 06:40:52;;;;;;;18.08;14.50;;;;;;;8.87;53.53;101519.78;5051586;27;96915;-74
2020/12/20 06:43:38;;;;;;;13.50;10.27;;;;;;;8.85;53.24;101527.53;5035238;27;96692;-73
2020/12/20 06:46:06;;;;;;;9.88;7.97;;;;;;;8.87;53.27;101538.13;5031297;27;96865;-73
2020/12/20 06:48:36;;;;;;;9.95;7.90;;;;;;;8.86;53.11;101541.56;5054954;27;98799;-74
2020/12/20 06:51:05;;;;;;;8.90;8.00;;;;;;;8.88;52.97;101539.97;5032101;27;97702;-74
2020/12/20 06:53:49;;;;;;;8.75;7.40;;;;;;;8.86;52.89;101541.56;5035783;27;96869;-73
2020/12/20 06:56:18;;;;;;;8.43;7.30;;;;;;;8.88;52.95;101543.50;5029760;27;97830;-73
2020/12/20 06:58:47;;;;;;;8.18;7.38;;;;;;;8.90;53.05;101533.13;5043169;27;100926;-73
2020/12/20 07:01:33;;;;;;;7.80;7.10;;;;;;;8.89;53.26;101531.28;5026250;27;97958;-76
2020/12/20 07:04:02;;;;;;;9.10;8.13;;;;;;;8.91;53.07;101534.94;5042369;27;96927;-71
2020/12/20 07:06:29;;;;;;;9.05;7.22;;;;;;;8.93;53.15;101528.09;5027110;27;97343;-73
2020/12/20 07:08:58;;;;;;;8.35;7.55;;;;;;;8.94;53.05;101530.81;5043726;27;97822;-74
2020/12/20 07:11:27;;;;;;;8.32;7.50;;;;;;;8.96;53.36;101533.53;5049042;27;102040;-73
2020/12/20 07:13:55;;;;;;;8.80;7.90;;;;;;;8.99;52.73;101541.63;5032263;27;97846;-73
2020/12/20 07:16:24;;;;;;;9.10;7.88;;;;;;;9.01;52.80;101542.66;5019662;27;96762;-73
2020/12/20 07:18:57;;;;;;;8.27;7.50;;;;;;;9.02;53.12;101540.16;5028524;27;97913;-73
2020/12/20 07:21:40;;;;;;;7.80;7.00;;;;;;;9.05;53.04;101534.22;5046118;27;98079;-74
2020/12/20 07:24:12;;;;;;;7.75;6.97;;;;;;;9.07;53.00;101540.44;5020406;27;97257;-74
2020/12/20 07:27:01;;;;;;;8.50;7.72;;;;;;;9.12;52.74;101539.09;5041369;27;97211;-73
2020/12/20 07:29:33;;;;;;;8.15;7.40;;;;;;;9.12;52.91;101534.75;5050738;27;100324;-72
2020/12/20 07:32:03;;;;;;;8.23;7.43;;;;;;;9.16;52.83;101538.47;5052732;27;97942;-75
2020/12/20 07:34:32;;;;;;;8.60;7.72;;;;;;;9.18;52.87;101544.75;5041500;27;96750;-76
2020/12/20 07:37:00;;;;;;;7.72;7.03;;;;;;;9.21;52.74;101544.97;5023487;27;97573;-76
2020/12/20 07:39:28;;;;;;;8.43;7.57;;;;;;;9.22;52.65;101538.94;5047109;27;98026;-74
2020/12/20 07:41:59;;;;;;;9.57;7.50;;;;;;;9.25;52.38;101544.41;5046722;27;97775;-74
2020/12/20 07:44:34;;;;;;;8.65;7.75;;;;;;;9.26;52.54;101540.97;5035882;27;96568;-75
2020/12/20 07:47:10;;;;;;;25.23;16.23;;;;;;;9.28;52.98;101548.94;5051616;27;96980;-79
2020/12/20 07:49:37;;;;;;;10.63;9.32;;;;;;;9.31;52.97;101554.38;5031908;27;98233;-74
2020/12/20 07:52:10;;;;;;;8.55;7.50;;;;;;;9.35;52.49;101556.41;5048318;27;100915;-75
2020/12/20 07:54:37;;;;;;;9.98;7.65;;;;;;;9.37;52.67;101566.22;5054448;27;96455;-74
2020/12/20 07:57:07;;;;;;;8.25;6.90;;;;;;;9.41;52.42;101554.25;5055993;27;96571;-75
2020/12/20 07:59:35;;;;;;;7.88;6.85;;;;;;;9.43;52.47;101544.78;5051552;27;99758;-75
2020/12/20 08:02:02;;;;;;;8.18;7.38;;;;;;;9.46;52.35;101552.84;5056206;27;98486;-73
2020/12/20 08:04:30;;;;;;;8.32;7.47;;;;;;;9.48;52.20;101553.84;5054982;27;96874;-74
2020/12/20 08:06:58;;;;;;;8.82;7.88;;;;;;;9.50;52.58;101552.25;5054032;27;97134;-73
2020/12/20 08:09:27;;;;;;;10.27;7.85;;;;;;;9.52;52.21;101555.91;5052113;27;99273;-75
2020/12/20 08:11:56;;;;;;;7.75;7.00;;;;;;;9.54;51.59;101551.66;5056337;27;97785;-73
2020/12/20 08:14:24;;;;;;;9.25;8.35;;;;;;;9.56;52.51;101563.19;5058352;27;96827;-75
2020/12/20 08:16:53;;;;;;;9.00;7.70;;;;;;;9.58;52.40;101554.59;5053350;27;97169;-74
2020/12/20 08:19:25;;;;;;;9.75;7.20;;;;;;;9.62;52.19;101554.00;5054155;27;98166;-75
2020/12/20 08:21:58;;;;;;;8.63;6.88;;;;;;;9.63;52.27;101555.84;5033963;27;98100;-73
2020/12/20 08:24:35;;;;;;;8.48;7.57;;;;;;;9.64;52.09;101554.09;5046879;27;97272;-74
2020/12/20 08:27:12;;;;;;;9.95;7.38;;;;;;;9.63;52.30;101550.59;5035188;27;97537;-75
2020/12/20 08:29:41;;;;;;;8.70;7.72;;;;;;;9.63;52.06;101545.34;5055504;27;97928;-73
2020/12/20 08:32:13;;;;;;;7.85;6.82;;;;;;;9.64;52.39;101536.66;5051797;27;97871;-73
2020/12/20 08:34:41;;;;;;;8.10;7.30;;;;;;;9.67;51.39;101535.97;5055265;27;96588;-74
2020/12/20 08:37:10;;;;;;;9.25;7.93;;;;;;;9.70;52.44;101542.34;5053131;27;98200;-74
2020/12/20 08:39:38;;;;;;;9.20;7.00;;;;;;;9.75;52.15;101550.50;5046054;27;96743;-74
2020/12/20 08:42:08;;;;;;;7.60;6.78;;;;;;;9.80;51.93;101547.41;5046175;27;99049;-74
2020/12/20 08:44:35;;;;;;;8.60;7.38;;;;;;;9.87;52.19;101546.13;5024155;27;97995;-74
2020/12/20 08:47:11;;;;;;;7.90;7.10;;;;;;;9.91;51.79;101551.66;5025899;27;96836;-73
2020/12/20 08:49:39;;;;;;;7.75;7.05;;;;;;;9.96;51.65;101547.63;5026504;27;97858;-74
2020/12/20 08:52:09;;;;;;;7.80;7.00;;;;;;;9.96;51.36;101542.38;5025389;27;100797;-74
2020/12/20 08:54:38;;;;;;;9.98;7.32;;;;;;;9.98;52.16;101546.00;5041961;27;96974;-74
2020/12/20 08:57:07;;;;;;;51.15;30.50;;;;;;;10.00;51.26;101544.41;5044235;27;97027;-74
2020/12/20 08:59:37;;;;;;;52.97;34.10;;;;;;;10.02;51.48;101550.66;5047823;27;97949;-73
2020/12/20 09:02:05;;;;;;;16.27;12.32;;;;;;;10.05;51.66;101561.38;5053497;27;99326;-74
2020/12/20 09:04:34;;;;;;;9.45;7.78;;;;;;;10.05;51.38;101582.38;5013396;27;98361;-73
2020/12/20 09:07:08;;;;;;;8.63;7.65;;;;;;;10.05;51.34;101587.63;5022343;27;98222;-74
2020/12/20 09:09:36;;;;;;;9.00;7.75;;;;;;;10.05;51.33;101564.00;5047113;27;102440;-74
2020/12/20 09:12:19;;;;;;;8.90;8.00;;;;;;;10.02;51.12;101574.28;5044582;27;99066;-74
2020/12/20 09:17:50;;;;;;;7.78;7.05;;;;;;;9.99;51.19;101579.34;5100274;27;97132;-77
2020/12/20 09:20:20;;;;;;;7.15;6.38;;;;;;;10.04;51.50;101572.69;5098423;27;96929;-76
2020/12/20 09:22:52;;;;;;;7.47;6.65;;;;;;;10.07;51.30;101562.38;5098524;27;97382;-76
2020/12/20 09:25:32;;;;;;;7.82;6.63;;;;;;;10.04;51.03;101567.44;5107920;27;97110;-76
2020/12/20 09:28:01;;;;;;;8.57;7.05;;;;;;;10.01;51.74;101583.00;5102838;27;97024;-78
2020/12/20 09:30:37;;;;;;;8.40;7.50;;;;;;;10.02;51.44;101576.00;5103388;27;96608;-76
2020/12/20 09:33:19;;;;;;;7.35;6.65;;;;;;;9.98;51.70;101582.75;5120174;27;99310;-77
2020/12/20 09:35:57;;;;;;;9.77;8.05;;;;;;;10.01;51.23;101577.75;5101002;27;97985;-76
2020/12/20 09:38:27;;;;;;;8.93;7.85;;;;;;;10.02;51.27;101579.53;5062953;27;96764;-78
2020/12/20 09:40:59;;;;;;;7.97;6.82;;;;;;;10.04;51.35;101580.56;5094889;27;97814;-76
2020/12/20 09:43:27;;;;;;;8.40;7.43;;;;;;;10.09;51.12;101587.06;5108728;27;97225;-76
2020/12/20 09:45:56;;;;;;;12.02;7.57;;;;;;;10.10;51.71;101591.53;5100353;27;96959;-76
2020/12/20 09:48:24;;;;;;;25.83;17.63;;;;;;;10.13;51.45;101589.09;5100174;27;97239;-77
2020/12/20 09:50:52;;;;;;;14.35;11.65;;;;;;;10.14;51.14;101598.78;5104840;27;97406;-77
2020/12/20 09:53:20;;;;;;;12.18;9.63;;;;;;;10.18;50.94;101586.78;5086524;27;97643;-78
2020/12/20 09:55:48;;;;;;;10.27;7.70;;;;;;;10.21;51.46;101576.47;5103364;27;97282;-76
2020/12/20 09:58:16;;;;;;;9.38;7.82;;;;;;;10.25;50.61;101582.84;5093155;27;97428;-76
2020/12/20 10:00:45;;;;;;;8.30;7.45;;;;;;;10.28;51.36;101577.78;5066534;27;96994;-77
2020/12/20 10:03:13;;;;;;;9.48;7.07;;;;;;;10.31;50.49;101567.50;5092452;27;97820;-77
2020/12/20 10:05:43;;;;;;;8.07;7.28;;;;;;;10.34;51.18;101560.75;5097411;27;97445;-77
2020/12/20 10:08:15;;;;;;;9.35;6.97;;;;;;;10.38;50.63;101559.22;5101348;27;98326;-77
2020/12/20 10:10:42;;;;;;;11.75;9.45;;;;;;;10.39;50.74;101561.03;5093915;27;97204;-77
2020/12/20 10:13:10;;;;;;;13.90;10.63;;;;;;;10.43;51.16;101563.06;5107018;27;97235;-78
2020/12/20 10:15:40;;;;;;;15.35;10.05;;;;;;;10.42;51.13;101563.88;5088418;27;97441;-77
2020/12/20 10:18:07;;;;;;;14.63;11.25;;;;;;;10.41;51.50;101562.03;5105369;27;96663;-77
2020/12/20 10:20:34;;;;;;;13.25;10.70;;;;;;;10.42;50.73;101551.63;5097754;27;96846;-77
2020/12/20 10:23:03;;;;;;;11.27;9.88;;;;;;;10.43;51.19;101561.34;5112517;27;97412;-77
2020/12/20 10:25:30;;;;;;;10.75;9.00;;;;;;;10.46;50.98;101543.16;5109690;27;98227;-77
2020/12/20 10:27:58;;;;;;;10.65;9.63;;;;;;;10.46;50.94;101542.25;5077248;27;97225;-77
2020/12/20 10:30:27;;;;;;;13.02;9.43;;;;;;;10.48;51.15;101551.13;5091615;27;97448;-72
2020/12/20 10:32:55;;;;;;;16.65;11.50;;;;;;;10.47;51.41;101546.69;5087814;27;96834;-76
2020/12/20 10:35:24;;;;;;;14.73;11.32;;;;;;;10.48;51.32;101545.88;5095599;27;97238;-78
2020/12/20 10:37:55;;;;;;;19.42;12.63;;;;;;;10.48;50.68;101557.31;5075496;27;97253;-77
2020/12/20 10:40:24;;;;;;;30.90;17.88;;;;;;;10.49;50.74;101547.72;5089874;27;97845;-76
2020/12/20 10:42:55;;;;;;;11.40;9.35;;;;;;;10.50;51.10;101555.69;5058399;27;99051;-77
2020/12/20 10:45:23;;;;;;;10.00;8.95;;;;;;;10.50;51.10;101544.25;5066158;27;96917;-77
2020/12/20 10:47:53;;;;;;;11.02;8.90;;;;;;;10.51;51.37;101546.97;5054268;27;96905;-76
2020/12/20 10:50:21;;;;;;;10.45;8.05;;;;;;;10.50;51.23;101549.50;5089388;27;97621;-76
2020/12/20 10:52:49;;;;;;;12.02;8.48;;;;;;;10.50;50.85;101539.94;5069538;27;97620;-76
2020/12/20 10:55:36;;;;;;;13.75;9.80;;;;;;;10.49;50.88;101521.44;5071568;27;97265;-77
2020/12/20 10:58:04;;;;;;;10.43;8.70;;;;;;;10.50;50.94;101534.69;5068091;27;96803;-77
2020/12/20 11:00:31;;;;;;;9.85;8.13;;;;;;;10.49;50.66;101535.47;5082217;27;97639;-76
2020/12/20 11:02:59;;;;;;;10.45;9.13;;;;;;;10.50;51.37;101537.31;5069269;27;96798;-77
2020/12/20 11:05:28;;;;;;;27.42;14.38;;;;;;;10.53;50.43;101523.47;5073156;27;99118;-76
2020/12/20 11:07:57;;;;;;;14.25;9.73;;;;;;;10.55;51.19;101513.94;5054774;27;96933;-76
2020/12/20 11:10:25;;;;;;;9.40;7.90;;;;;;;10.58;50.81;101508.91;5070245;27;96947;-77
2020/12/20 11:12:54;;;;;;;11.05;9.30;;;;;;;10.61;50.50;101495.94;5090371;27;98101;-76
2020/12/20 11:15:22;;;;;;;12.93;9.60;;;;;;;10.64;50.93;101497.06;5084727;27;96874;-77
2020/12/20 11:17:51;;;;;;;18.00;12.10;;;;;;;10.68;50.71;101480.69;5049458;27;96761;-76
2020/12/20 11:20:18;;;;;;;11.55;9.38;;;;;;;10.71;50.52;101479.97;5062766;27;97536;-77
2020/12/20 11:22:46;;;;;;;10.43;8.18;;;;;;;10.72;51.27;101466.03;5060804;27;96897;-78
2020/12/20 11:25:13;;;;;;;10.65;7.63;;;;;;;10.73;50.99;101470.47;5065756;27;97645;-76
2020/12/20 11:27:41;;;;;;;10.07;7.90;;;;;;;10.74;51.16;101467.03;5072898;27;97107;-76
2020/12/20 11:30:09;;;;;;;9.23;8.30;;;;;;;10.74;51.10;101456.50;5089881;27;97771;-77
2020/12/20 11:32:38;;;;;;;15.02;9.73;;;;;;;10.75;50.86;101458.31;5089208;27;96968;-77
2020/12/20 11:35:06;;;;;;;14.32;10.75;;;;;;;10.75;50.39;101472.38;5053430;27;100302;-77
2020/12/20 11:37:34;;;;;;;13.15;9.80;;;;;;;10.75;51.02;101479.34;5075632;27;96939;-77
2020/12/20 11:40:02;;;;;;;12.82;9.43;;;;;;;10.75;50.47;101505.63;5088289;27;96890;-76
2020/12/20 11:42:29;;;;;;;12.48;10.02;;;;;;;10.75;51.03;101517.03;5071018;27;97522;-77
2020/12/20 11:44:57;;;;;;;11.45;10.23;;;;;;;10.77;51.27;101525.94;5072171;27;98166;-76
2020/12/20 11:47:25;;;;;;;13.05;8.55;;;;;;;10.82;50.81;101528.88;5072786;27;97858;-76
2020/12/20 11:49:55;;;;;;;11.68;8.75;;;;;;;10.85;50.85;101521.19;5056151;27;97275;-76